Flight Track Log - Related Links

Times and Time Zones

All times are in EDT time to prevent confusion due to time zone crossing. See the N229CN flight status page for this flight to view local times or setup timezone preferences in your user account.

Time Position Orientation Groundspeed Altitude Reporting Facility
EDT Latitude Longitude Course Direction KTS MPH feet Rate Location/Type
Tue 02:03:28 PM 42.4667 -71.3000 246° West 193 222 1,100  Level KA90
Tue 02:04:16 PM 42.4500 -71.3500 246° West 194 223 2,100 2,412 Climbing KA90
Tue 02:05:10 PM 42.5000 -71.3500 360° North 232 267 5,200 3,559 Climbing KA90
Tue 02:07:40 PM 42.6781 -71.3047 11° North 275 316 14,200 3,536 Climbing Boston Center
Tue 02:08:37 PM 42.7675 -71.2833 10° North 289 333 17,400 2,874 Climbing Boston Center
Tue 02:09:39 PM 42.8389 -71.3358 332° Northwest 284 327 19,900 1,300 Climbing Boston Center
Tue 02:10:37 PM 42.9022 -71.4197 316° Northwest 291 335 20,000 51 Climbing Boston Center
Tue 02:11:37 PM 42.9697 -71.4922 322° Northwest 325 374 20,000  Level Boston Center
Tue 02:12:38 PM 43.0453 -71.5764 321° Northwest 330 380 20,000  Level Boston Center
Tue 02:13:38 PM 43.1147 -71.6550 320° Northwest 330 380 20,000  Level Boston Center
Tue 02:14:39 PM 43.1839 -71.7367 319° Northwest 330 380 20,000  Level Boston Center
Tue 02:15:40 PM 43.2553 -71.8186 320° Northwest 330 380 20,000  Level Boston Center
Tue 02:16:38 PM 43.3244 -71.8978 320° Northwest 330 380 20,000  Level Boston Center
Tue 02:17:39 PM 43.3936 -71.9800 319° Northwest 330 380 20,000  Level Boston Center
Tue 02:18:39 PM 43.4606 -72.0597 319° Northwest 330 380 20,000  Level Boston Center
Tue 02:19:38 PM 43.5317 -72.1394 321° Northwest 330 380 20,000  Level Boston Center
Tue 02:20:38 PM 43.6006 -72.2222 319° Northwest 330 380 20,000 -198 Level Boston Center
Tue 02:21:39 PM 43.6694 -72.3022 320° Northwest 330 380 19,600 -992 Descending Boston Center
Tue 02:22:39 PM 43.7361 -72.3825 319° Northwest 330 380 18,000 -1,450 Descending Boston Center
Tue 02:23:39 PM 43.7989 -72.4603 318° Northwest 319 367 16,700 -1,373 Descending Boston Center
Tue 02:24:37 PM 43.8611 -72.5350 319° Northwest 309 356 15,300 -1,513 Descending Boston Center
Tue 02:25:38 PM 43.9236 -72.6072 320° Northwest 303 349 13,700 -1,525 Descending Boston Center
Tue 02:26:39 PM 43.9756 -72.6739 317° Northwest 284 327 12,200 -1,289 Descending Boston Center
Tue 02:27:39 PM 44.0339 -72.7433 319° Northwest 284 327 11,100 -650 Descending Boston Center
Tue 02:28:39 PM 44.0919 -72.8042 323° Northwest 275 316 10,900 -915 Descending Boston Center
Tue 02:29:37 PM 44.1586 -72.8481 335° Northwest 260 299 9,300 -1,563 Descending Boston Center
Tue 02:30:38 PM 44.2189 -72.8861 336° Northwest 250 288 7,800 -1,438 Descending Boston Center
Tue 02:31:38 PM 44.2811 -72.9069 347° North 235 270 6,400 -893 Descending Boston Center
Tue 02:32:39 PM 44.3292 -72.9161 352° North 230 265 6,000 -1,033 Descending Boston Center
Tue 02:33:40 PM 44.3978 -72.9486 341° North 204 235 4,300 -1,475 Descending Boston Center
Tue 02:34:37 PM 44.4433 -73.0069 318° Northwest 211 243 3,100 -872 Descending Boston Center
Tue 02:35:37 PM 44.4847 -73.0744 311° West 218 251 2,600 -248 Descending Boston Center
Tue 02:36:38 PM 44.5197 -73.1358 309° West 218 251 2,600 -197 Level Boston Center
Tue 02:37:39 PM 44.5486 -73.1828 311° West 203 234 2,200 -448 Descending Boston Center
Tue 02:38:52 PM 44.5275 -73.2089 221° Southwest 94 108 1,600 -493 Descending Boston Center
Tue 02:40:00 PM 44.4667 -73.1500 170° South  Level FlightAware Approximate
Tue 02:47:00 PM 44.4719 -73.1533 170° South  Level Estimated
Tue 02:48:00 PM 44.4667 -73.1500 170° South  Level FlightAware Approximate
Tue 02:49:00 PM 44.4719 -73.1533 170° South  Level Estimated
Tue 02:50:00 PM 44.4667 -73.1500 170° South  Level FlightAware Approximate

Login

Don't have an account? Register now (free) for customized features, flight alerts, and more!